sensor_id;sensor_type;location;lat;lon;timestamp;P1;durP1;ratioP1;P2;durP2;ratioP2
12861;SDS011;6499;66.348;14.134;2023-05-16T00:01:07;5.93;;;3.57;;
12861;SDS011;6499;66.348;14.134;2023-05-16T00:03:34;4.03;;;3.20;;
12861;SDS011;6499;66.348;14.134;2023-05-16T00:06:01;4.50;;;3.13;;
12861;SDS011;6499;66.348;14.134;2023-05-16T00:08:27;5.27;;;3.10;;
12861;SDS011;6499;66.348;14.134;2023-05-16T00:10:54;3.67;;;2.70;;
12861;SDS011;6499;66.348;14.134;2023-05-16T00:13:22;5.17;;;3.47;;
12861;SDS011;6499;66.348;14.134;2023-05-16T00:15:49;7.33;;;3.20;;
12861;SDS011;6499;66.348;14.134;2023-05-16T00:18:17;5.00;;;3.50;;
12861;SDS011;6499;66.348;14.134;2023-05-16T00:20:44;4.87;;;3.47;;
12861;SDS011;6499;66.348;14.134;2023-05-16T00:23:10;7.47;;;3.93;;
12861;SDS011;6499;66.348;14.134;2023-05-16T00:25:37;5.33;;;3.53;;
12861;SDS011;6499;66.348;14.134;2023-05-16T00:28:03;3.43;;;2.90;;
12861;SDS011;6499;66.348;14.134;2023-05-16T00:30:31;4.63;;;3.00;;
12861;SDS011;6499;66.348;14.134;2023-05-16T00:32:58;3.80;;;3.40;;
12861;SDS011;6499;66.348;14.134;2023-05-16T00:35:24;5.50;;;3.20;;
12861;SDS011;6499;66.348;14.134;2023-05-16T00:37:51;3.87;;;2.80;;
12861;SDS011;6499;66.348;14.134;2023-05-16T00:40:17;3.63;;;3.17;;
12861;SDS011;6499;66.348;14.134;2023-05-16T00:42:44;4.57;;;3.17;;
12861;SDS011;6499;66.348;14.134;2023-05-16T00:45:10;3.43;;;3.13;;
12861;SDS011;6499;66.348;14.134;2023-05-16T00:47:38;4.40;;;3.70;;
12861;SDS011;6499;66.348;14.134;2023-05-16T00:50:05;5.07;;;3.30;;
12861;SDS011;6499;66.348;14.134;2023-05-16T00:52:32;6.97;;;3.50;;
12861;SDS011;6499;66.348;14.134;2023-05-16T00:54:59;3.43;;;3.07;;
12861;SDS011;6499;66.348;14.134;2023-05-16T00:57:25;4.63;;;3.30;;
12861;SDS011;6499;66.348;14.134;2023-05-16T00:59:52;4.43;;;3.37;;
12861;SDS011;6499;66.348;14.134;2023-05-16T01:02:19;3.80;;;3.20;;
12861;SDS011;6499;66.348;14.134;2023-05-16T01:04:47;6.63;;;3.23;;
12861;SDS011;6499;66.348;14.134;2023-05-16T01:07:15;3.73;;;3.33;;
12861;SDS011;6499;66.348;14.134;2023-05-16T01:09:42;4.70;;;3.30;;
12861;SDS011;6499;66.348;14.134;2023-05-16T01:12:10;3.63;;;3.23;;
12861;SDS011;6499;66.348;14.134;2023-05-16T01:14:53;4.27;;;3.27;;
12861;SDS011;6499;66.348;14.134;2023-05-16T01:17:22;4.23;;;3.30;;
12861;SDS011;6499;66.348;14.134;2023-05-16T01:19:58;4.13;;;3.47;;
12861;SDS011;6499;66.348;14.134;2023-05-16T01:22:29;6.07;;;3.23;;
12861;SDS011;6499;66.348;14.134;2023-05-16T01:25:04;3.53;;;3.23;;
12861;SDS011;6499;66.348;14.134;2023-05-16T01:27:32;4.20;;;3.23;;
12861;SDS011;6499;66.348;14.134;2023-05-16T01:29:59;4.10;;;3.70;;
12861;SDS011;6499;66.348;14.134;2023-05-16T01:32:26;4.57;;;3.33;;
12861;SDS011;6499;66.348;14.134;2023-05-16T01:34:52;5.70;;;3.47;;
12861;SDS011;6499;66.348;14.134;2023-05-16T01:37:20;4.27;;;3.43;;
12861;SDS011;6499;66.348;14.134;2023-05-16T01:39:50;4.17;;;3.20;;
12861;SDS011;6499;66.348;14.134;2023-05-16T01:42:18;3.63;;;3.30;;
12861;SDS011;6499;66.348;14.134;2023-05-16T01:44:48;3.90;;;3.37;;
12861;SDS011;6499;66.348;14.134;2023-05-16T01:47:16;3.90;;;3.23;;
12861;SDS011;6499;66.348;14.134;2023-05-16T01:49:45;4.33;;;3.27;;
12861;SDS011;6499;66.348;14.134;2023-05-16T01:52:15;6.00;;;3.47;;
12861;SDS011;6499;66.348;14.134;2023-05-16T01:54:44;7.67;;;3.40;;
12861;SDS011;6499;66.348;14.134;2023-05-16T01:57:13;5.57;;;3.27;;
12861;SDS011;6499;66.348;14.134;2023-05-16T01:59:43;4.20;;;2.93;;
12861;SDS011;6499;66.348;14.134;2023-05-16T02:02:11;4.90;;;3.70;;
12861;SDS011;6499;66.348;14.134;2023-05-16T02:04:37;4.20;;;3.27;;
12861;SDS011;6499;66.348;14.134;2023-05-16T02:07:07;4.47;;;3.37;;
12861;SDS011;6499;66.348;14.134;2023-05-16T02:09:33;4.20;;;3.40;;
12861;SDS011;6499;66.348;14.134;2023-05-16T02:12:00;3.87;;;3.47;;
12861;SDS011;6499;66.348;14.134;2023-05-16T02:14:27;3.50;;;3.20;;
12861;SDS011;6499;66.348;14.134;2023-05-16T02:16:53;3.87;;;3.40;;
12861;SDS011;6499;66.348;14.134;2023-05-16T02:19:21;4.63;;;3.63;;
12861;SDS011;6499;66.348;14.134;2023-05-16T02:21:48;4.07;;;3.67;;
12861;SDS011;6499;66.348;14.134;2023-05-16T02:24:15;5.50;;;3.73;;
12861;SDS011;6499;66.348;14.134;2023-05-16T02:26:42;4.33;;;3.90;;
12861;SDS011;6499;66.348;14.134;2023-05-16T02:29:08;4.00;;;3.47;;
12861;SDS011;6499;66.348;14.134;2023-05-16T02:31:35;4.97;;;3.23;;
12861;SDS011;6499;66.348;14.134;2023-05-16T02:34:01;4.60;;;3.47;;
12861;SDS011;6499;66.348;14.134;2023-05-16T02:36:29;4.87;;;3.90;;
12861;SDS011;6499;66.348;14.134;2023-05-16T02:38:58;3.80;;;3.40;;
12861;SDS011;6499;66.348;14.134;2023-05-16T02:41:25;5.90;;;3.80;;
12861;SDS011;6499;66.348;14.134;2023-05-16T02:43:51;4.20;;;3.43;;
12861;SDS011;6499;66.348;14.134;2023-05-16T02:46:21;4.60;;;3.63;;
12861;SDS011;6499;66.348;14.134;2023-05-16T02:48:48;4.37;;;3.43;;
12861;SDS011;6499;66.348;14.134;2023-05-16T02:51:15;4.90;;;3.70;;
12861;SDS011;6499;66.348;14.134;2023-05-16T02:53:43;6.57;;;3.97;;
12861;SDS011;6499;66.348;14.134;2023-05-16T02:56:10;5.70;;;3.60;;
12861;SDS011;6499;66.348;14.134;2023-05-16T02:58:36;4.83;;;3.67;;
12861;SDS011;6499;66.348;14.134;2023-05-16T03:01:03;4.73;;;3.60;;
12861;SDS011;6499;66.348;14.134;2023-05-16T03:03:30;3.77;;;3.47;;
12861;SDS011;6499;66.348;14.134;2023-05-16T03:05:57;4.43;;;3.70;;
12861;SDS011;6499;66.348;14.134;2023-05-16T03:08:23;4.10;;;3.70;;
12861;SDS011;6499;66.348;14.134;2023-05-16T03:10:51;4.70;;;3.40;;
12861;SDS011;6499;66.348;14.134;2023-05-16T03:13:18;5.17;;;4.27;;
12861;SDS011;6499;66.348;14.134;2023-05-16T03:15:44;5.87;;;3.70;;
12861;SDS011;6499;66.348;14.134;2023-05-16T03:18:11;6.60;;;3.67;;
12861;SDS011;6499;66.348;14.134;2023-05-16T03:20:37;4.27;;;3.27;;
12861;SDS011;6499;66.348;14.134;2023-05-16T03:23:07;5.47;;;3.83;;
12861;SDS011;6499;66.348;14.134;2023-05-16T03:25:34;4.97;;;3.23;;
12861;SDS011;6499;66.348;14.134;2023-05-16T03:28:04;4.20;;;3.63;;
12861;SDS011;6499;66.348;14.134;2023-05-16T03:30:31;6.50;;;4.17;;
12861;SDS011;6499;66.348;14.134;2023-05-16T03:32:58;6.37;;;4.10;;
12861;SDS011;6499;66.348;14.134;2023-05-16T03:35:24;5.93;;;4.20;;
12861;SDS011;6499;66.348;14.134;2023-05-16T03:37:51;4.67;;;4.10;;
12861;SDS011;6499;66.348;14.134;2023-05-16T03:40:17;5.87;;;4.63;;
12861;SDS011;6499;66.348;14.134;2023-05-16T03:42:44;8.67;;;4.20;;
12861;SDS011;6499;66.348;14.134;2023-05-16T03:45:12;7.17;;;4.60;;
12861;SDS011;6499;66.348;14.134;2023-05-16T03:47:38;6.70;;;4.00;;
12861;SDS011;6499;66.348;14.134;2023-05-16T03:50:05;4.87;;;4.37;;
12861;SDS011;6499;66.348;14.134;2023-05-16T03:52:32;5.47;;;4.60;;
12861;SDS011;6499;66.348;14.134;2023-05-16T03:54:59;5.43;;;4.03;;
12861;SDS011;6499;66.348;14.134;2023-05-16T03:57:26;7.07;;;4.90;;
12861;SDS011;6499;66.348;14.134;2023-05-16T03:59:52;8.43;;;4.37;;
12861;SDS011;6499;66.348;14.134;2023-05-16T04:02:20;5.33;;;4.47;;
12861;SDS011;6499;66.348;14.134;2023-05-16T04:04:47;7.13;;;5.03;;
12861;SDS011;6499;66.348;14.134;2023-05-16T04:07:13;5.77;;;4.33;;
12861;SDS011;6499;66.348;14.134;2023-05-16T04:09:40;4.97;;;4.47;;
12861;SDS011;6499;66.348;14.134;2023-05-16T04:12:06;5.77;;;4.70;;
12861;SDS011;6499;66.348;14.134;2023-05-16T04:14:33;6.70;;;4.53;;
12861;SDS011;6499;66.348;14.134;2023-05-16T04:17:00;5.57;;;4.17;;
12861;SDS011;6499;66.348;14.134;2023-05-16T04:19:28;4.63;;;4.17;;
12861;SDS011;6499;66.348;14.134;2023-05-16T04:21:54;4.00;;;3.60;;
12861;SDS011;6499;66.348;14.134;2023-05-16T04:24:21;5.37;;;3.60;;
12861;SDS011;6499;66.348;14.134;2023-05-16T04:26:50;6.60;;;4.20;;
12861;SDS011;6499;66.348;14.134;2023-05-16T04:29:17;5.43;;;4.20;;
12861;SDS011;6499;66.348;14.134;2023-05-16T04:31:43;4.77;;;3.90;;
12861;SDS011;6499;66.348;14.134;2023-05-16T04:34:10;5.63;;;4.43;;
12861;SDS011;6499;66.348;14.134;2023-05-16T04:36:38;7.07;;;4.13;;
12861;SDS011;6499;66.348;14.134;2023-05-16T04:39:05;4.47;;;4.00;;
12861;SDS011;6499;66.348;14.134;2023-05-16T04:41:32;4.90;;;4.00;;
12861;SDS011;6499;66.348;14.134;2023-05-16T04:44:00;6.87;;;4.23;;
12861;SDS011;6499;66.348;14.134;2023-05-16T04:49:01;6.00;;;4.13;;
12861;SDS011;6499;66.348;14.134;2023-05-16T04:51:28;5.00;;;4.03;;
12861;SDS011;6499;66.348;14.134;2023-05-16T04:53:57;4.93;;;3.67;;
12861;SDS011;6499;66.348;14.134;2023-05-16T04:56:24;4.80;;;3.90;;
12861;SDS011;6499;66.348;14.134;2023-05-16T04:58:50;11.53;;;4.43;;
12861;SDS011;6499;66.348;14.134;2023-05-16T05:01:17;6.03;;;4.40;;
12861;SDS011;6499;66.348;14.134;2023-05-16T05:03:43;4.50;;;4.10;;
12861;SDS011;6499;66.348;14.134;2023-05-16T05:06:10;5.67;;;4.40;;
12861;SDS011;6499;66.348;14.134;2023-05-16T05:08:37;4.80;;;4.27;;
12861;SDS011;6499;66.348;14.134;2023-05-16T05:11:05;5.40;;;4.23;;
12861;SDS011;6499;66.348;14.134;2023-05-16T05:13:31;5.67;;;3.97;;
12861;SDS011;6499;66.348;14.134;2023-05-16T05:15:58;6.33;;;4.80;;
12861;SDS011;6499;66.348;14.134;2023-05-16T05:18:26;7.10;;;5.07;;
12861;SDS011;6499;66.348;14.134;2023-05-16T05:20:52;6.07;;;4.60;;
12861;SDS011;6499;66.348;14.134;2023-05-16T05:23:19;7.33;;;4.90;;
12861;SDS011;6499;66.348;14.134;2023-05-16T05:25:46;7.37;;;4.83;;
12861;SDS011;6499;66.348;14.134;2023-05-16T05:28:13;6.13;;;4.60;;
12861;SDS011;6499;66.348;14.134;2023-05-16T05:30:40;5.93;;;4.77;;
12861;SDS011;6499;66.348;14.134;2023-05-16T05:33:07;5.63;;;4.50;;
12861;SDS011;6499;66.348;14.134;2023-05-16T05:35:33;7.00;;;4.90;;
12861;SDS011;6499;66.348;14.134;2023-05-16T05:38:00;4.93;;;4.20;;
12861;SDS011;6499;66.348;14.134;2023-05-16T05:40:26;6.10;;;4.80;;
12861;SDS011;6499;66.348;14.134;2023-05-16T05:42:53;5.43;;;4.37;;
12861;SDS011;6499;66.348;14.134;2023-05-16T05:45:21;5.00;;;4.47;;
12861;SDS011;6499;66.348;14.134;2023-05-16T05:47:47;6.73;;;4.80;;
12861;SDS011;6499;66.348;14.134;2023-05-16T05:50:14;6.70;;;5.13;;
12861;SDS011;6499;66.348;14.134;2023-05-16T05:52:40;8.33;;;5.30;;
12861;SDS011;6499;66.348;14.134;2023-05-16T05:55:07;5.97;;;4.73;;
12861;SDS011;6499;66.348;14.134;2023-05-16T05:57:37;8.27;;;5.40;;
12861;SDS011;6499;66.348;14.134;2023-05-16T06:00:04;8.60;;;5.60;;
12861;SDS011;6499;66.348;14.134;2023-05-16T06:02:32;7.20;;;5.30;;
12861;SDS011;6499;66.348;14.134;2023-05-16T06:04:59;7.17;;;5.00;;
12861;SDS011;6499;66.348;14.134;2023-05-16T06:07:25;8.23;;;5.03;;
12861;SDS011;6499;66.348;14.134;2023-05-16T06:09:52;7.73;;;5.60;;
12861;SDS011;6499;66.348;14.134;2023-05-16T06:12:18;8.27;;;5.73;;
12861;SDS011;6499;66.348;14.134;2023-05-16T06:14:45;8.57;;;5.50;;
12861;SDS011;6499;66.348;14.134;2023-05-16T06:17:11;8.43;;;5.63;;
12861;SDS011;6499;66.348;14.134;2023-05-16T06:19:39;6.57;;;5.20;;
12861;SDS011;6499;66.348;14.134;2023-05-16T06:22:06;7.37;;;5.23;;
12861;SDS011;6499;66.348;14.134;2023-05-16T06:24:32;6.53;;;5.07;;
12861;SDS011;6499;66.348;14.134;2023-05-16T06:26:59;7.70;;;5.83;;
12861;SDS011;6499;66.348;14.134;2023-05-16T06:29:26;7.20;;;5.77;;
12861;SDS011;6499;66.348;14.134;2023-05-16T06:31:52;7.97;;;5.80;;
12861;SDS011;6499;66.348;14.134;2023-05-16T06:34:19;6.70;;;5.50;;
12861;SDS011;6499;66.348;14.134;2023-05-16T06:36:52;6.73;;;5.97;;
12861;SDS011;6499;66.348;14.134;2023-05-16T06:39:19;7.23;;;5.63;;
12861;SDS011;6499;66.348;14.134;2023-05-16T06:41:46;5.67;;;4.60;;
12861;SDS011;6499;66.348;14.134;2023-05-16T06:44:12;5.63;;;5.03;;
12861;SDS011;6499;66.348;14.134;2023-05-16T06:46:39;5.50;;;4.63;;
12861;SDS011;6499;66.348;14.134;2023-05-16T06:49:06;6.53;;;4.53;;
12861;SDS011;6499;66.348;14.134;2023-05-16T06:51:32;7.00;;;4.70;;
12861;SDS011;6499;66.348;14.134;2023-05-16T06:54:04;6.07;;;5.20;;
12861;SDS011;6499;66.348;14.134;2023-05-16T06:56:30;5.23;;;4.43;;
12861;SDS011;6499;66.348;14.134;2023-05-16T06:58:57;6.70;;;5.17;;
12861;SDS011;6499;66.348;14.134;2023-05-16T07:01:25;7.30;;;4.67;;
12861;SDS011;6499;66.348;14.134;2023-05-16T07:03:52;5.97;;;4.70;;
12861;SDS011;6499;66.348;14.134;2023-05-16T07:06:18;7.57;;;4.80;;
12861;SDS011;6499;66.348;14.134;2023-05-16T07:08:45;5.13;;;3.87;;
12861;SDS011;6499;66.348;14.134;2023-05-16T07:11:13;5.57;;;3.20;;
12861;SDS011;6499;66.348;14.134;2023-05-16T07:13:40;4.93;;;3.40;;
12861;SDS011;6499;66.348;14.134;2023-05-16T07:16:06;4.50;;;3.00;;
12861;SDS011;6499;66.348;14.134;2023-05-16T07:18:33;5.73;;;2.17;;
12861;SDS011;6499;66.348;14.134;2023-05-16T07:20:59;5.00;;;3.30;;
12861;SDS011;6499;66.348;14.134;2023-05-16T07:23:26;5.67;;;3.57;;
12861;SDS011;6499;66.348;14.134;2023-05-16T07:25:52;4.43;;;2.90;;
12861;SDS011;6499;66.348;14.134;2023-05-16T07:28:20;5.50;;;3.70;;
12861;SDS011;6499;66.348;14.134;2023-05-16T07:30:47;4.13;;;3.33;;
12861;SDS011;6499;66.348;14.134;2023-05-16T07:33:14;6.17;;;3.23;;
12861;SDS011;6499;66.348;14.134;2023-05-16T07:35:40;5.00;;;2.80;;
12861;SDS011;6499;66.348;14.134;2023-05-16T07:38:07;4.43;;;3.13;;
12861;SDS011;6499;66.348;14.134;2023-05-16T07:40:33;4.23;;;2.83;;
12861;SDS011;6499;66.348;14.134;2023-05-16T07:43:00;5.53;;;2.77;;
12861;SDS011;6499;66.348;14.134;2023-05-16T07:45:28;5.07;;;3.00;;
12861;SDS011;6499;66.348;14.134;2023-05-16T07:47:54;4.77;;;2.80;;
12861;SDS011;6499;66.348;14.134;2023-05-16T07:50:22;5.10;;;3.17;;
12861;SDS011;6499;66.348;14.134;2023-05-16T07:52:48;3.97;;;2.70;;
12861;SDS011;6499;66.348;14.134;2023-05-16T07:55:15;5.63;;;2.63;;
12861;SDS011;6499;66.348;14.134;2023-05-16T07:57:41;4.20;;;2.60;;
12861;SDS011;6499;66.348;14.134;2023-05-16T08:00:08;6.13;;;2.90;;
12861;SDS011;6499;66.348;14.134;2023-05-16T08:02:36;3.93;;;3.00;;
12861;SDS011;6499;66.348;14.134;2023-05-16T08:05:03;5.40;;;3.70;;
12861;SDS011;6499;66.348;14.134;2023-05-16T08:07:30;5.27;;;3.73;;
12861;SDS011;6499;66.348;14.134;2023-05-16T08:09:56;5.33;;;3.47;;
12861;SDS011;6499;66.348;14.134;2023-05-16T08:12:23;5.07;;;3.50;;
12861;SDS011;6499;66.348;14.134;2023-05-16T08:14:51;6.33;;;2.97;;
12861;SDS011;6499;66.348;14.134;2023-05-16T08:17:17;6.50;;;3.73;;
12861;SDS011;6499;66.348;14.134;2023-05-16T08:19:45;4.60;;;3.00;;
12861;SDS011;6499;66.348;14.134;2023-05-16T08:22:12;4.57;;;3.47;;
12861;SDS011;6499;66.348;14.134;2023-05-16T08:24:38;4.87;;;3.20;;
12861;SDS011;6499;66.348;14.134;2023-05-16T08:27:05;4.43;;;3.03;;
12861;SDS011;6499;66.348;14.134;2023-05-16T08:29:32;4.30;;;3.00;;
12861;SDS011;6499;66.348;14.134;2023-05-16T08:31:59;3.67;;;2.40;;
12861;SDS011;6499;66.348;14.134;2023-05-16T08:34:26;5.93;;;3.10;;
12861;SDS011;6499;66.348;14.134;2023-05-16T08:36:54;3.80;;;2.93;;
12861;SDS011;6499;66.348;14.134;2023-05-16T08:39:20;4.70;;;3.53;;
12861;SDS011;6499;66.348;14.134;2023-05-16T08:41:47;6.43;;;4.30;;
12861;SDS011;6499;66.348;14.134;2023-05-16T08:44:13;6.97;;;4.73;;
12861;SDS011;6499;66.348;14.134;2023-05-16T08:46:46;5.77;;;4.00;;
12861;SDS011;6499;66.348;14.134;2023-05-16T08:49:14;5.97;;;4.13;;
12861;SDS011;6499;66.348;14.134;2023-05-16T08:51:41;5.43;;;3.83;;
12861;SDS011;6499;66.348;14.134;2023-05-16T08:54:10;4.63;;;3.70;;
12861;SDS011;6499;66.348;14.134;2023-05-16T08:56:37;4.10;;;3.33;;
12861;SDS011;6499;66.348;14.134;2023-05-16T08:59:04;6.10;;;3.57;;
12861;SDS011;6499;66.348;14.134;2023-05-16T09:01:31;4.17;;;3.77;;
12861;SDS011;6499;66.348;14.134;2023-05-16T09:03:57;4.33;;;3.03;;
12861;SDS011;6499;66.348;14.134;2023-05-16T09:06:24;5.33;;;3.57;;
12861;SDS011;6499;66.348;14.134;2023-05-16T09:08:51;4.37;;;3.33;;
12861;SDS011;6499;66.348;14.134;2023-05-16T09:11:19;4.57;;;3.83;;
12861;SDS011;6499;66.348;14.134;2023-05-16T09:13:45;4.10;;;3.43;;
12861;SDS011;6499;66.348;14.134;2023-05-16T09:16:13;4.10;;;3.70;;
12861;SDS011;6499;66.348;14.134;2023-05-16T09:18:39;4.13;;;3.20;;
12861;SDS011;6499;66.348;14.134;2023-05-16T09:21:08;4.07;;;3.53;;
12861;SDS011;6499;66.348;14.134;2023-05-16T09:23:35;5.30;;;3.63;;
12861;SDS011;6499;66.348;14.134;2023-05-16T09:26:02;3.47;;;3.17;;
12861;SDS011;6499;66.348;14.134;2023-05-16T09:28:30;4.17;;;3.50;;
12861;SDS011;6499;66.348;14.134;2023-05-16T09:30:56;4.07;;;3.30;;
12861;SDS011;6499;66.348;14.134;2023-05-16T09:33:25;4.13;;;3.50;;
12861;SDS011;6499;66.348;14.134;2023-05-16T09:35:55;5.07;;;3.40;;
12861;SDS011;6499;66.348;14.134;2023-05-16T09:38:23;3.33;;;3.00;;
12861;SDS011;6499;66.348;14.134;2023-05-16T09:40:49;4.10;;;3.30;;
12861;SDS011;6499;66.348;14.134;2023-05-16T09:43:16;4.60;;;3.30;;
12861;SDS011;6499;66.348;14.134;2023-05-16T09:45:46;4.87;;;3.20;;
12861;SDS011;6499;66.348;14.134;2023-05-16T09:48:13;4.23;;;2.90;;
12861;SDS011;6499;66.348;14.134;2023-05-16T09:50:44;2.90;;;2.60;;
12861;SDS011;6499;66.348;14.134;2023-05-16T09:53:12;5.43;;;2.80;;
12861;SDS011;6499;66.348;14.134;2023-05-16T09:55:38;3.80;;;2.97;;
12861;SDS011;6499;66.348;14.134;2023-05-16T09:58:05;2.67;;;2.37;;
12861;SDS011;6499;66.348;14.134;2023-05-16T10:00:32;3.30;;;2.97;;
12861;SDS011;6499;66.348;14.134;2023-05-16T10:03:01;3.03;;;2.73;;
12861;SDS011;6499;66.348;14.134;2023-05-16T10:05:28;3.20;;;2.80;;
12861;SDS011;6499;66.348;14.134;2023-05-16T10:07:55;4.73;;;2.90;;
12861;SDS011;6499;66.348;14.134;2023-05-16T10:10:22;6.27;;;3.20;;
12861;SDS011;6499;66.348;14.134;2023-05-16T10:12:49;2.80;;;2.60;;
12861;SDS011;6499;66.348;14.134;2023-05-16T10:15:16;3.20;;;2.90;;
12861;SDS011;6499;66.348;14.134;2023-05-16T10:17:44;3.00;;;2.60;;
12861;SDS011;6499;66.348;14.134;2023-05-16T10:20:12;3.60;;;2.67;;
12861;SDS011;6499;66.348;14.134;2023-05-16T10:22:41;3.70;;;3.00;;
12861;SDS011;6499;66.348;14.134;2023-05-16T10:25:11;4.00;;;2.50;;
12861;SDS011;6499;66.348;14.134;2023-05-16T10:27:38;2.80;;;2.60;;
12861;SDS011;6499;66.348;14.134;2023-05-16T10:30:05;3.03;;;2.57;;
12861;SDS011;6499;66.348;14.134;2023-05-16T10:32:33;3.93;;;2.70;;
12861;SDS011;6499;66.348;14.134;2023-05-16T10:35:01;3.53;;;3.00;;
12861;SDS011;6499;66.348;14.134;2023-05-16T10:37:30;3.70;;;3.00;;
12861;SDS011;6499;66.348;14.134;2023-05-16T10:39:57;3.00;;;2.70;;
12861;SDS011;6499;66.348;14.134;2023-05-16T10:42:24;4.93;;;3.00;;
12861;SDS011;6499;66.348;14.134;2023-05-16T10:44:52;4.27;;;2.60;;
12861;SDS011;6499;66.348;14.134;2023-05-16T10:47:19;3.00;;;2.70;;
12861;SDS011;6499;66.348;14.134;2023-05-16T10:49:45;3.60;;;3.30;;
12861;SDS011;6499;66.348;14.134;2023-05-16T10:52:12;2.70;;;2.50;;
12861;SDS011;6499;66.348;14.134;2023-05-16T10:54:41;5.60;;;3.10;;
12861;SDS011;6499;66.348;14.134;2023-05-16T10:57:09;3.50;;;2.90;;
12861;SDS011;6499;66.348;14.134;2023-05-16T10:59:43;3.20;;;2.60;;
12861;SDS011;6499;66.348;14.134;2023-05-16T11:02:23;4.33;;;2.80;;
12861;SDS011;6499;66.348;14.134;2023-05-16T11:04:50;3.17;;;2.57;;
12861;SDS011;6499;66.348;14.134;2023-05-16T11:07:17;2.80;;;2.50;;
12861;SDS011;6499;66.348;14.134;2023-05-16T11:09:49;2.77;;;2.30;;
12861;SDS011;6499;66.348;14.134;2023-05-16T11:12:19;2.60;;;2.40;;
12861;SDS011;6499;66.348;14.134;2023-05-16T11:14:48;3.93;;;2.63;;
12861;SDS011;6499;66.348;14.134;2023-05-16T11:17:19;2.80;;;2.50;;
12861;SDS011;6499;66.348;14.134;2023-05-16T11:19:46;2.60;;;2.40;;
12861;SDS011;6499;66.348;14.134;2023-05-16T11:22:20;2.50;;;2.30;;
12861;SDS011;6499;66.348;14.134;2023-05-16T11:24:49;3.23;;;2.70;;
12861;SDS011;6499;66.348;14.134;2023-05-16T11:27:20;2.87;;;2.50;;
12861;SDS011;6499;66.348;14.134;2023-05-16T11:29:49;4.37;;;2.70;;
12861;SDS011;6499;66.348;14.134;2023-05-16T11:32:18;2.43;;;2.23;;
12861;SDS011;6499;66.348;14.134;2023-05-16T11:34:45;2.63;;;2.30;;
12861;SDS011;6499;66.348;14.134;2023-05-16T11:37:12;3.87;;;2.40;;
12861;SDS011;6499;66.348;14.134;2023-05-16T11:39:39;2.67;;;2.20;;
12861;SDS011;6499;66.348;14.134;2023-05-16T11:42:07;2.47;;;2.20;;
12861;SDS011;6499;66.348;14.134;2023-05-16T11:44:33;2.97;;;2.30;;
12861;SDS011;6499;66.348;14.134;2023-05-16T11:47:00;4.20;;;2.30;;
12861;SDS011;6499;66.348;14.134;2023-05-16T11:49:26;3.53;;;1.97;;
12861;SDS011;6499;66.348;14.134;2023-05-16T11:51:54;2.83;;;2.23;;
12861;SDS011;6499;66.348;14.134;2023-05-16T11:54:21;2.23;;;1.97;;
12861;SDS011;6499;66.348;14.134;2023-05-16T11:56:48;2.93;;;2.00;;
12861;SDS011;6499;66.348;14.134;2023-05-16T11:59:16;4.87;;;2.33;;
12861;SDS011;6499;66.348;14.134;2023-05-16T12:01:43;4.83;;;2.33;;
12861;SDS011;6499;66.348;14.134;2023-05-16T12:04:12;3.40;;;2.50;;
12861;SDS011;6499;66.348;14.134;2023-05-16T12:06:39;3.63;;;2.30;;
12861;SDS011;6499;66.348;14.134;2023-05-16T12:09:10;3.53;;;2.37;;
12861;SDS011;6499;66.348;14.134;2023-05-16T12:11:37;3.47;;;2.17;;
12861;SDS011;6499;66.348;14.134;2023-05-16T12:14:04;5.07;;;2.30;;
12861;SDS011;6499;66.348;14.134;2023-05-16T12:16:32;13.67;;;3.83;;
12861;SDS011;6499;66.348;14.134;2023-05-16T12:19:01;7.30;;;2.60;;
12861;SDS011;6499;66.348;14.134;2023-05-16T12:21:28;4.53;;;2.40;;
12861;SDS011;6499;66.348;14.134;2023-05-16T12:23:55;11.13;;;3.40;;
12861;SDS011;6499;66.348;14.134;2023-05-16T12:26:26;4.90;;;2.60;;
12861;SDS011;6499;66.348;14.134;2023-05-16T12:28:55;4.37;;;2.33;;
12861;SDS011;6499;66.348;14.134;2023-05-16T12:31:24;3.83;;;2.63;;
12861;SDS011;6499;66.348;14.134;2023-05-16T12:33:53;4.33;;;2.30;;
12861;SDS011;6499;66.348;14.134;2023-05-16T12:36:20;6.20;;;2.40;;
12861;SDS011;6499;66.348;14.134;2023-05-16T12:38:46;2.67;;;2.00;;
12861;SDS011;6499;66.348;14.134;2023-05-16T12:41:16;2.83;;;2.37;;
12861;SDS011;6499;66.348;14.134;2023-05-16T12:43:43;3.17;;;2.03;;
12861;SDS011;6499;66.348;14.134;2023-05-16T12:46:09;3.20;;;2.17;;
12861;SDS011;6499;66.348;14.134;2023-05-16T12:48:36;2.87;;;2.40;;
12861;SDS011;6499;66.348;14.134;2023-05-16T12:51:13;4.77;;;2.73;;
12861;SDS011;6499;66.348;14.134;2023-05-16T12:53:40;4.30;;;2.63;;
12861;SDS011;6499;66.348;14.134;2023-05-16T12:56:07;4.03;;;2.80;;
12861;SDS011;6499;66.348;14.134;2023-05-16T12:58:33;5.47;;;3.20;;
12861;SDS011;6499;66.348;14.134;2023-05-16T13:01:00;5.37;;;3.23;;
12861;SDS011;6499;66.348;14.134;2023-05-16T13:03:27;4.30;;;3.07;;
12861;SDS011;6499;66.348;14.134;2023-05-16T13:05:54;4.90;;;2.57;;
12861;SDS011;6499;66.348;14.134;2023-05-16T13:08:22;4.30;;;2.80;;
12861;SDS011;6499;66.348;14.134;2023-05-16T13:10:48;4.37;;;2.67;;
12861;SDS011;6499;66.348;14.134;2023-05-16T13:13:15;6.17;;;3.50;;
12861;SDS011;6499;66.348;14.134;2023-05-16T13:15:43;4.67;;;2.90;;
12861;SDS011;6499;66.348;14.134;2023-05-16T13:18:09;4.37;;;3.17;;
12861;SDS011;6499;66.348;14.134;2023-05-16T13:20:36;4.53;;;3.10;;
12861;SDS011;6499;66.348;14.134;2023-05-16T13:23:03;5.87;;;3.00;;
12861;SDS011;6499;66.348;14.134;2023-05-16T13:25:31;4.23;;;2.90;;
12861;SDS011;6499;66.348;14.134;2023-05-16T13:27:58;6.30;;;2.90;;
12861;SDS011;6499;66.348;14.134;2023-05-16T13:30:25;5.50;;;3.40;;
12861;SDS011;6499;66.348;14.134;2023-05-16T13:32:52;8.03;;;4.27;;
12861;SDS011;6499;66.348;14.134;2023-05-16T13:35:19;6.90;;;4.10;;
12861;SDS011;6499;66.348;14.134;2023-05-16T13:37:46;5.53;;;4.27;;
12861;SDS011;6499;66.348;14.134;2023-05-16T13:40:12;5.90;;;4.43;;
12861;SDS011;6499;66.348;14.134;2023-05-16T13:42:40;6.23;;;4.30;;
12861;SDS011;6499;66.348;14.134;2023-05-16T13:45:07;5.63;;;4.80;;
12861;SDS011;6499;66.348;14.134;2023-05-16T13:47:33;4.80;;;4.13;;
12861;SDS011;6499;66.348;14.134;2023-05-16T13:50:00;5.70;;;4.07;;
12861;SDS011;6499;66.348;14.134;2023-05-16T13:52:30;6.03;;;4.20;;
12861;SDS011;6499;66.348;14.134;2023-05-16T13:54:56;7.03;;;4.23;;
12861;SDS011;6499;66.348;14.134;2023-05-16T13:57:23;5.83;;;4.07;;
12861;SDS011;6499;66.348;14.134;2023-05-16T13:59:52;4.93;;;3.83;;
12861;SDS011;6499;66.348;14.134;2023-05-16T14:02:20;6.87;;;3.77;;
12861;SDS011;6499;66.348;14.134;2023-05-16T14:04:46;5.07;;;3.40;;
12861;SDS011;6499;66.348;14.134;2023-05-16T14:07:13;6.40;;;4.10;;
12861;SDS011;6499;66.348;14.134;2023-05-16T14:09:40;4.33;;;3.37;;
12861;SDS011;6499;66.348;14.134;2023-05-16T14:12:06;5.80;;;3.90;;
12861;SDS011;6499;66.348;14.134;2023-05-16T14:14:33;5.63;;;3.53;;
12861;SDS011;6499;66.348;14.134;2023-05-16T14:17:01;5.60;;;3.90;;
12861;SDS011;6499;66.348;14.134;2023-05-16T14:19:28;3.80;;;3.37;;
12861;SDS011;6499;66.348;14.134;2023-05-16T14:21:55;4.50;;;3.63;;
12861;SDS011;6499;66.348;14.134;2023-05-16T14:24:21;3.73;;;3.30;;
12861;SDS011;6499;66.348;14.134;2023-05-16T14:26:48;4.00;;;3.27;;
12861;SDS011;6499;66.348;14.134;2023-05-16T14:29:18;5.53;;;3.87;;
12861;SDS011;6499;66.348;14.134;2023-05-16T14:31:45;5.53;;;3.60;;
12861;SDS011;6499;66.348;14.134;2023-05-16T14:34:13;4.70;;;3.23;;
12861;SDS011;6499;66.348;14.134;2023-05-16T14:36:40;5.93;;;3.90;;
12861;SDS011;6499;66.348;14.134;2023-05-16T14:39:07;5.77;;;4.20;;
12861;SDS011;6499;66.348;14.134;2023-05-16T14:41:34;5.33;;;4.37;;
12861;SDS011;6499;66.348;14.134;2023-05-16T14:44:01;5.77;;;3.50;;
12861;SDS011;6499;66.348;14.134;2023-05-16T14:46:28;4.87;;;3.97;;
12861;SDS011;6499;66.348;14.134;2023-05-16T14:48:54;4.03;;;3.50;;
12861;SDS011;6499;66.348;14.134;2023-05-16T14:51:22;3.90;;;3.47;;